Terminal Aerodrome Forecast
Issued by NWS

Home | Current Version | Previous Version | Text Only | Print | Product List | Glossary On
Versions: 1 2 3 4 5 6 7 8 9 10 11 12 13 14 15 16
000
FTUS42 TJSJ 190540
TAFJBQ
TAF
TJBQ 190540Z 1906/2006 VRB04KT P6SM FEW025
     FM191400 05012KT P6SM SCT025
     FM191800 08008KT P6SM VCSH SCT020 SCT040 BKN050
      TEMPO 1920/1922 SHRA SCT014 BKN020=

USA.gov is the U.S. government's official web portal to all federal, state and local government web resources and services.